Time;durP1;ratioP1;P1;durP2;ratioP2;P2;SDS_P1;SDS_P2;PMS_P1;PMS_P2;Temp;Humidity;BMP_temperature;BMP_pressure;BME280_temperature;BME280_humidity;BME280_pressure;Samples;Min_cycle;Max_cycle;Signal;HPM_P1;HPM_P2
2021/03/27 00:02:24;;;;;;;11.50;5.07;;;9.50;52.70;;;;;;4962256;28;20035;-83
2021/03/27 00:05:13;;;;;;;7.73;3.93;;;9.50;52.70;;;;;;4969476;28;20074;-83
2021/03/27 00:07:51;;;;;;;7.63;4.23;;;9.50;52.90;;;;;;4955710;28;20558;-83
2021/03/27 00:10:27;;;;;;;8.80;5.10;;;9.50;52.70;;;;;;4973442;28;20023;-82
2021/03/27 00:12:56;;;;;;;15.50;7.77;;;9.40;52.90;;;;;;4971590;28;20027;-83
2021/03/27 00:15:48;;;;;;;8.77;4.83;;;9.50;53.00;;;;;;4967845;28;20031;-82
2021/03/27 00:18:23;;;;;;;9.20;4.80;;;9.50;53.20;;;;;;4964983;28;20039;-82
2021/03/27 00:21:05;;;;;;;10.07;5.90;;;9.40;53.10;;;;;;4972607;28;20038;-83
2021/03/27 00:24:01;;;;;;;7.93;5.00;;;9.40;53.30;;;;;;4966718;28;20029;-83
2021/03/27 00:27:07;;;;;;;8.87;5.90;;;9.40;53.30;;;;;;4972908;28;20027;-84
2021/03/27 00:29:47;;;;;;;7.00;4.87;;;9.40;53.30;;;;;;4970253;28;20495;-83
2021/03/27 00:32:41;;;;;;;9.70;5.07;;;9.30;53.50;;;;;;4973051;28;20029;-84
2021/03/27 00:35:13;;;;;;;9.20;5.50;;;9.40;53.50;;;;;;4970764;28;20035;-83
2021/03/27 00:37:40;;;;;;;11.52;6.55;;;9.40;53.40;;;;;;4963004;28;20056;-83
2021/03/27 00:40:13;;;;;;;9.77;5.83;;;9.30;53.40;;;;;;4954999;28;20097;-83
2021/03/27 00:42:45;;;;;;;10.17;5.97;;;9.20;53.70;;;;;;4966613;28;20067;-83
2021/03/27 00:45:24;;;;;;;8.17;5.57;;;9.30;53.90;;;;;;4975554;28;20048;-83
2021/03/27 00:47:59;;;;;;;11.60;6.10;;;9.20;54.00;;;;;;4966269;28;20031;-83
2021/03/27 00:50:40;;;;;;;8.50;5.40;;;9.30;54.00;;;;;;4971329;28;20523;-83
2021/03/27 00:53:29;;;;;;;8.13;5.67;;;9.20;53.90;;;;;;4969497;28;20035;-83
2021/03/27 00:56:03;;;;;;;14.20;6.03;;;9.20;54.10;;;;;;4973725;28;20027;-83
2021/03/27 00:58:43;;;;;;;8.73;5.50;;;9.20;54.00;;;;;;4974456;28;20027;-83
2021/03/27 01:01:11;;;;;;;5.83;4.07;;;9.20;54.30;;;;;;4970590;28;20090;-83
2021/03/27 01:03:41;;;;;;;9.47;4.40;;;9.20;54.20;;;;;;4973283;28;20045;-83
2021/03/27 01:06:11;;;;;;;8.83;4.87;;;9.30;54.20;;;;;;4969692;28;20042;-83
2021/03/27 01:08:39;;;;;;;9.87;5.93;;;9.20;54.00;;;;;;4969037;28;20058;-82
2021/03/27 01:11:18;;;;;;;13.70;6.47;;;9.20;54.30;;;;;;4973231;28;20063;-83
2021/03/27 01:13:53;;;;;;;14.47;6.90;;;9.10;54.40;;;;;;4969938;28;20089;-83
2021/03/27 01:16:32;;;;;;;12.50;6.13;;;9.10;54.60;;;;;;4973107;28;20037;-83
2021/03/27 01:19:15;;;;;;;10.90;6.77;;;9.10;54.70;;;;;;4956782;28;20109;-83
2021/03/27 01:21:43;;;;;;;10.83;6.67;;;9.10;54.90;;;;;;4960817;28;20055;-83
2021/03/27 01:24:14;;;;;;;10.77;6.50;;;9.00;54.90;;;;;;4966319;28;20037;-83
2021/03/27 01:26:51;;;;;;;9.93;6.17;;;9.10;55.10;;;;;;4967408;28;20034;-83
2021/03/27 01:29:41;;;;;;;11.20;6.27;;;9.10;55.10;;;;;;4972461;28;20066;-83
2021/03/27 01:32:25;;;;;;;7.60;5.40;;;9.10;55.20;;;;;;4973193;28;20054;-83
2021/03/27 01:35:38;;;;;;;11.13;5.80;;;9.10;54.90;;;;;;4968466;28;20031;-83
2021/03/27 01:38:12;;;;;;;8.15;5.82;;;9.10;55.10;;;;;;4957834;28;20039;-83
2021/03/27 01:40:41;;;;;;;7.73;6.00;;;9.10;54.80;;;;;;4966220;28;20026;-83
2021/03/27 01:43:29;;;;;;;12.50;7.23;;;9.10;54.70;;;;;;4973313;28;20124;-83
2021/03/27 01:46:28;;;;;;;12.30;7.07;;;9.20;54.80;;;;;;4958906;28;20015;-83
2021/03/27 01:48:53;;;;;;;14.70;7.03;;;9.00;55.10;;;;;;4963429;28;20023;-83
2021/03/27 01:51:50;;;;;;;10.03;7.10;;;9.00;55.50;;;;;;4959865;28;20023;-83
2021/03/27 01:54:27;;;;;;;11.67;6.57;;;9.10;55.40;;;;;;4966988;28;20051;-84
2021/03/27 01:56:53;;;;;;;11.20;7.13;;;9.10;55.30;;;;;;4967851;28;20015;-84
2021/03/27 01:59:33;;;;;;;14.00;7.20;;;9.10;55.30;;;;;;4972704;28;20137;-84
2021/03/27 02:02:12;;;;;;;8.17;6.40;;;9.10;55.30;;;;;;4973959;28;20030;-84
2021/03/27 02:04:43;;;;;;;15.53;6.47;;;9.20;55.00;;;;;;4979886;28;20042;-83
2021/03/27 02:07:15;;;;;;;14.63;8.10;;;9.20;54.90;;;;;;4973106;28;20051;-84
2021/03/27 02:10:03;;;;;;;11.10;6.60;;;9.10;55.00;;;;;;4955212;28;20456;-84
2021/03/27 02:12:51;;;;;;;12.30;7.37;;;9.00;55.20;;;;;;4971411;28;20069;-83
2021/03/27 02:15:21;;;;;;;15.27;7.77;;;8.90;55.40;;;;;;4969716;28;20028;-84
2021/03/27 02:17:49;;;;;;;12.60;7.40;;;8.90;55.40;;;;;;4955282;28;20110;-83
2021/03/27 02:20:33;;;;;;;12.67;8.03;;;8.90;55.50;;;;;;4973006;28;20031;-84
2021/03/27 02:23:45;;;;;;;14.07;8.37;;;8.70;55.90;;;;;;4965512;28;20117;-84
2021/03/27 02:26:36;;;;;;;12.23;7.87;;;8.70;56.00;;;;;;4967059;28;20039;-84
2021/03/27 02:29:38;;;;;;;10.30;6.67;;;8.70;56.00;;;;;;4964511;28;20035;-84
2021/03/27 02:32:09;;;;;;;9.03;6.30;;;8.70;55.90;;;;;;4969631;28;20494;-83
2021/03/27 02:34:43;;;;;;;13.20;6.90;;;8.70;55.60;;;;;;4974077;28;20023;-84
2021/03/27 02:37:28;;;;;;;9.43;6.67;;;8.60;55.80;;;;;;4961147;28;20578;-84
2021/03/27 02:40:05;;;;;;;10.00;6.20;;;8.70;55.90;;;;;;4969645;28;20475;-84
2021/03/27 02:42:40;;;;;;;11.73;6.00;;;8.70;55.80;;;;;;4958029;28;20479;-83
2021/03/27 02:45:34;;;;;;;8.57;4.80;;;8.70;55.40;;;;;;4956083;28;20054;-83
2021/03/27 02:48:20;;;;;;;13.02;6.78;;;8.70;55.30;;;;;;4966657;28;20035;-83
2021/03/27 02:51:00;;;;;;;11.37;4.27;;;8.60;55.40;;;;;;4962938;28;20561;-83
2021/03/27 02:53:47;;;;;;;11.80;7.10;;;8.50;55.60;;;;;;4980275;28;20493;-83
2021/03/27 02:56:20;;;;;;;15.13;8.13;;;8.50;55.90;;;;;;4963223;28;20035;-83
2021/03/27 02:59:11;;;;;;;16.47;8.43;;;8.50;55.90;;;;;;4971680;28;20030;-83
2021/03/27 03:02:08;;;;;;;14.67;8.07;;;8.50;56.00;;;;;;4959065;28;20082;-83
2021/03/27 03:05:07;;;;;;;14.13;8.17;;;8.50;56.20;;;;;;4973305;28;20038;-83
2021/03/27 03:07:45;;;;;;;17.17;9.30;;;8.50;56.20;;;;;;4971760;28;20053;-84
2021/03/27 03:10:26;;;;;;;18.57;9.30;;;8.40;56.20;;;;;;4984281;28;20034;-84
2021/03/27 03:13:22;;;;;;;13.17;8.73;;;8.30;56.50;;;;;;4965940;28;20027;-84
2021/03/27 03:15:54;;;;;;;15.00;8.73;;;8.20;56.60;;;;;;4967940;28;20105;-84
2021/03/27 03:18:51;;;;;;;14.80;8.25;;;8.20;56.60;;;;;;4960994;28;20687;-83
2021/03/27 03:21:47;;;;;;;14.27;6.67;;;8.20;56.80;;;;;;4972316;28;20122;-83
2021/03/27 03:24:36;;;;;;;14.57;8.77;;;8.20;56.80;;;;;;4965771;28;20043;-83
2021/03/27 03:27:11;;;;;;;17.57;9.70;;;8.10;56.60;;;;;;4956634;28;20043;-83
2021/03/27 03:30:00;;;;;;;13.37;9.13;;;8.10;56.70;;;;;;4971897;28;20494;-83
2021/03/27 03:32:48;;;;;;;14.87;8.63;;;8.10;57.10;;;;;;4962482;28;20023;-84
2021/03/27 03:35:48;;;;;;;14.23;8.20;;;8.10;57.10;;;;;;4961979;28;20106;-83
2021/03/27 03:38:43;;;;;;;12.13;7.27;;;8.10;57.30;;;;;;4965466;28;20066;-83
2021/03/27 03:41:09;;;;;;;15.03;8.47;;;8.10;57.40;;;;;;4952637;28;20667;-84
2021/03/27 03:44:03;;;;;;;13.87;8.53;;;8.00;57.30;;;;;;4970685;28;20031;-83
2021/03/27 03:46:47;;;;;;;15.73;9.20;;;8.10;57.40;;;;;;4971834;28;20398;-83
2021/03/27 03:49:31;;;;;;;16.27;10.30;;;8.00;57.30;;;;;;4968436;28;20129;-83
2021/03/27 03:52:15;;;;;;;14.37;8.93;;;7.90;57.40;;;;;;4964769;28;20041;-83
2021/03/27 03:55:21;;;;;;;10.60;8.50;;;7.80;57.80;;;;;;4970855;28;20129;-83
2021/03/27 03:58:14;;;;;;;8.77;5.97;;;7.90;58.00;;;;;;4957661;28;20028;-83
2021/03/27 04:00:40;;;;;;;10.65;6.32;;;7.90;57.70;;;;;;4990432;28;20026;-83
2021/03/27 04:03:39;;;;;;;11.43;8.07;;;8.00;57.50;;;;;;4974485;28;20090;-83
2021/03/27 04:06:14;;;;;;;11.97;7.83;;;8.00;57.50;;;;;;4967995;28;20047;-84
2021/03/27 04:09:01;;;;;;;14.70;9.17;;;7.90;57.50;;;;;;4957072;29;20074;-84
2021/03/27 04:11:58;;;;;;;15.13;8.17;;;7.90;57.50;;;;;;4964744;28;20463;-83
2021/03/27 04:14:43;;;;;;;15.93;9.50;;;7.90;57.70;;;;;;4964003;28;20027;-83
2021/03/27 04:17:34;;;;;;;18.77;10.13;;;7.80;57.80;;;;;;4971762;28;20031;-83
2021/03/27 04:20:15;;;;;;;19.77;9.43;;;7.80;57.90;;;;;;4969797;28;20034;-83
2021/03/27 04:23:10;;;;;;;15.53;9.50;;;7.80;58.00;;;;;;4969192;28;20476;-82
2021/03/27 04:26:04;;;;;;;16.60;9.77;;;7.80;58.00;;;;;;4961202;28;20125;-83
2021/03/27 04:28:44;;;;;;;16.25;9.30;;;7.70;58.00;;;;;;4984930;28;20057;-83
2021/03/27 04:31:23;;;;;;;22.33;8.97;;;7.70;58.10;;;;;;4981979;28;20078;-83
2021/03/27 04:34:06;;;;;;;20.30;10.33;;;7.70;58.30;;;;;;4964733;28;20035;-83
2021/03/27 04:37:06;;;;;;;15.07;8.68;;;7.80;58.10;;;;;;4970075;28;20087;-83
2021/03/27 04:39:52;;;;;;;13.20;8.53;;;7.80;57.90;;;;;;4964194;28;20394;-83
2021/03/27 04:42:43;;;;;;;14.87;9.57;;;7.70;58.60;;;;;;4970972;28;20031;-83
2021/03/27 04:45:09;;;;;;;14.70;8.77;;;7.70;58.20;;;;;;4973444;28;20073;-83
2021/03/27 04:47:41;;;;;;;12.90;8.83;;;7.70;57.90;;;;;;4971520;28;20038;-83
2021/03/27 04:50:29;;;;;;;16.15;8.77;;;7.70;58.10;;;;;;4968596;28;20039;-82
2021/03/27 04:53:01;;;;;;;13.30;8.53;;;7.70;58.10;;;;;;4971254;28;20023;-83
2021/03/27 04:55:43;;;;;;;21.63;10.20;;;7.60;58.10;;;;;;4964587;28;20078;-83
2021/03/27 04:58:09;;;;;;;14.23;8.97;;;7.60;58.40;;;;;;4961754;28;20348;-83
2021/03/27 05:00:49;;;;;;;17.40;9.80;;;7.60;58.50;;;;;;4981360;28;20035;-82
2021/03/27 05:03:23;;;;;;;14.53;9.67;;;7.60;58.50;;;;;;4973534;28;20054;-83
2021/03/27 05:06:12;;;;;;;12.77;8.30;;;7.60;58.50;;;;;;4971067;28;20050;-83
2021/03/27 05:08:56;;;;;;;14.10;9.33;;;7.60;58.70;;;;;;4964165;28;20495;-83
2021/03/27 05:11:40;;;;;;;18.13;10.03;;;7.50;58.70;;;;;;4974557;28;20026;-83
2021/03/27 05:14:43;;;;;;;16.47;9.83;;;7.40;58.60;;;;;;4973609;28;20029;-83
2021/03/27 05:17:30;;;;;;;15.67;10.63;;;7.30;59.00;;;;;;4973425;28;20452;-83
2021/03/27 05:20:08;;;;;;;14.00;9.80;;;7.40;59.10;;;;;;4974186;28;20114;-83
2021/03/27 05:22:55;;;;;;;15.60;10.47;;;7.40;59.00;;;;;;4957952;28;20028;-83
2021/03/27 05:25:44;;;;;;;17.27;10.17;;;7.50;58.90;;;;;;4967042;28;20034;-84
2021/03/27 05:28:47;;;;;;;15.80;10.93;;;7.50;59.10;;;;;;4973054;28;20118;-84
2021/03/27 05:31:43;;;;;;;18.30;10.93;;;7.50;59.10;;;;;;4955087;28;20037;-84
2021/03/27 05:34:33;;;;;;;25.73;11.80;;;7.50;58.90;;;;;;4956089;28;20019;-83
2021/03/27 05:37:23;;;;;;;16.70;11.10;;;7.50;59.00;;;;;;4968031;28;20446;-84
2021/03/27 05:40:10;;;;;;;15.83;11.10;;;7.60;58.90;;;;;;4970882;28;20074;-83
2021/03/27 05:43:13;;;;;;;16.67;9.83;;;7.70;58.90;;;;;;4957009;28;20094;-83
2021/03/27 05:45:44;;;;;;;16.13;11.82;;;7.80;58.90;;;;;;4968687;28;20026;-83
2021/03/27 05:48:35;;;;;;;18.03;9.10;;;7.80;58.60;;;;;;4972929;28;20038;-83
2021/03/27 05:51:38;;;;;;;16.30;9.97;;;7.90;58.70;;;;;;4970859;28;20034;-83
2021/03/27 05:54:32;;;;;;;15.60;7.85;;;7.90;58.90;;;;;;4973182;28;20045;-83
2021/03/27 05:57:29;;;;;;;17.07;10.13;;;8.00;58.90;;;;;;4962672;28;20050;-83
2021/03/27 06:00:37;;;;;;;16.73;10.90;;;8.20;58.90;;;;;;4957111;28;20118;-83
2021/03/27 06:03:32;;;;;;;18.83;12.23;;;8.20;58.60;;;;;;4936657;28;20550;-83
2021/03/27 06:05:58;;;;;;;22.17;11.17;;;8.30;58.50;;;;;;4973753;28;20035;-84
2021/03/27 06:08:42;;;;;;;13.83;8.70;;;8.40;58.30;;;;;;4973784;28;20054;-83
2021/03/27 06:11:26;;;;;;;16.30;8.33;;;8.40;58.30;;;;;;4965094;28;20031;-82
2021/03/27 06:14:43;;;;;;;13.07;8.40;;;8.40;58.30;;;;;;4970029;28;20027;-83
2021/03/27 06:17:18;;;;;;;11.37;8.27;;;8.50;58.20;;;;;;4955757;28;20390;-83
2021/03/27 06:20:17;;;;;;;16.83;8.37;;;8.50;58.70;;;;;;4969646;28;20027;-83
2021/03/27 06:23:15;;;;;;;18.00;9.43;;;8.60;58.30;;;;;;4953860;28;20566;-82
2021/03/27 06:25:46;;;;;;;14.33;8.87;;;8.60;58.30;;;;;;4962468;28;20035;-83
2021/03/27 06:28:21;;;;;;;16.70;9.27;;;8.60;59.00;;;;;;4964205;28;20027;-83
2021/03/27 06:31:24;;;;;;;13.93;8.80;;;8.60;58.40;;;;;;4971819;28;20057;-83
2021/03/27 06:34:29;;;;;;;13.65;8.02;;;8.70;58.50;;;;;;4962467;28;20047;-83
2021/03/27 06:37:04;;;;;;;11.73;8.27;;;8.80;58.50;;;;;;4961076;28;20659;-84
2021/03/27 06:40:09;;;;;;;13.50;7.87;;;8.80;58.30;;;;;;4971385;28;20434;-83
2021/03/27 06:43:04;;;;;;;14.43;8.10;;;8.80;58.30;;;;;;4960014;28;20035;-83
2021/03/27 06:46:00;;;;;;;12.33;8.07;;;8.80;58.30;;;;;;4972626;28;20174;-84
2021/03/27 06:48:52;;;;;;;13.43;8.77;;;8.90;58.30;;;;;;4961165;28;20110;-84
2021/03/27 06:51:37;;;;;;;14.53;8.10;;;8.90;58.40;;;;;;4963072;28;20426;-84
2021/03/27 06:54:30;;;;;;;11.63;7.50;;;8.90;58.50;;;;;;4972686;28;20031;-84
2021/03/27 06:57:01;;;;;;;;;;;9.00;58.30;;;;;;4961667;28;20106;-84
2021/03/27 06:59:46;;;;;;;15.47;6.73;;;9.10;58.00;;;;;;4968808;28;19957;-84
2021/03/27 07:02:29;;;;;;;15.03;7.90;;;9.10;58.00;;;;;;4970864;28;20027;-84
2021/03/27 07:05:14;;;;;;;14.57;7.27;;;9.10;58.30;;;;;;4954942;28;20054;-84
2021/03/27 07:08:05;;;;;;;12.23;7.30;;;9.10;58.30;;;;;;4954829;28;20048;-84
2021/03/27 07:11:01;;;;;;;13.27;7.57;;;9.20;58.30;;;;;;4969541;28;20552;-82
2021/03/27 07:14:20;;;;;;;12.30;7.30;;;9.20;58.30;;;;;;4972646;28;20032;-82
2021/03/27 07:17:11;;;;;;;15.13;8.13;;;9.20;58.30;;;;;;4965179;28;21472;-83
2021/03/27 07:20:07;;;;;;;19.47;8.03;;;9.30;58.30;;;;;;4974761;28;20027;-84
2021/03/27 07:22:46;;;;;;;15.90;8.97;;;9.40;58.30;;;;;;4977947;28;20034;-83
2021/03/27 07:25:21;;;;;;;16.83;10.47;;;9.50;58.30;;;;;;4955592;28;20058;-83
2021/03/27 07:28:25;;;;;;;17.67;11.10;;;9.50;58.10;;;;;;4953257;28;20035;-83
2021/03/27 07:30:51;;;;;;;17.67;11.30;;;9.50;57.90;;;;;;4953292;28;20110;-84
2021/03/27 07:33:55;;;;;;;20.17;12.10;;;9.50;57.90;;;;;;4957655;28;20150;-84
2021/03/27 07:36:30;;;;;;;15.37;11.17;;;9.60;58.10;;;;;;4944056;28;20115;-84
2021/03/27 07:39:24;;;;;;;18.87;11.73;;;9.60;57.90;;;;;;4977578;28;20034;-84
2021/03/27 07:41:59;;;;;;;19.57;12.13;;;9.60;58.00;;;;;;4958788;28;20086;-83
2021/03/27 07:44:40;;;;;;;16.27;11.50;;;9.70;58.00;;;;;;4976680;28;20030;-84
2021/03/27 07:47:28;;;;;;;21.13;13.70;;;9.70;57.90;;;;;;4976132;28;20558;-84
2021/03/27 07:50:15;;;;;;;22.70;11.93;;;9.80;57.70;;;;;;4976360;28;20030;-84
2021/03/27 07:53:16;;;;;;;20.73;13.07;;;9.90;57.60;;;;;;4972446;28;20030;-84
2021/03/27 07:56:03;;;;;;;17.00;11.77;;;10.10;57.80;;;;;;4968665;28;20043;-84
2021/03/27 07:58:57;;;;;;;15.97;11.23;;;10.30;57.00;;;;;;4972643;28;20034;-84
2021/03/27 08:01:38;;;;;;;17.63;11.47;;;10.50;56.70;;;;;;4975607;28;20053;-84
2021/03/27 08:04:26;;;;;;;15.63;11.80;;;10.70;56.40;;;;;;4968030;28;20023;-84
2021/03/27 08:07:02;;;;;;;20.53;11.97;;;10.80;56.10;;;;;;4972740;28;20054;-84
2021/03/27 08:09:34;;;;;;;16.70;11.80;;;10.90;55.70;;;;;;4968193;28;20046;-84
2021/03/27 08:12:15;;;;;;;20.90;11.65;;;11.00;55.00;;;;;;4961006;28;20061;-84
2021/03/27 08:15:05;;;;;;;17.03;11.97;;;11.00;54.60;;;;;;4972330;28;20028;-84
2021/03/27 08:18:15;;;;;;;27.20;12.63;;;11.10;54.40;;;;;;4986596;28;20115;-84
2021/03/27 08:20:54;;;;;;;20.87;12.47;;;11.20;54.30;;;;;;4972580;28;20034;-84
2021/03/27 08:23:20;;;;;;;20.20;12.33;;;11.40;54.80;;;;;;4969329;28;20797;-84
2021/03/27 08:26:27;;;;;;;20.30;11.60;;;11.60;54.00;;;;;;4972558;28;20029;-84
2021/03/27 08:28:55;;;;;;;15.80;9.53;;;11.80;53.60;;;;;;4961826;28;20043;-84
2021/03/27 08:31:45;;;;;;;16.67;10.57;;;12.10;52.90;;;;;;4970480;28;20085;-84
2021/03/27 08:34:38;;;;;;;13.00;9.30;;;12.30;52.30;;;;;;4968052;28;20031;-84
2021/03/27 08:37:24;;;;;;;18.57;9.17;;;12.60;51.90;;;;;;4964091;28;20046;-84
2021/03/27 08:40:11;;;;;;;13.20;8.10;;;12.80;51.40;;;;;;4984500;28;20034;-84
2021/03/27 08:43:31;;;;;;;9.93;6.83;;;13.10;51.20;;;;;;4973884;28;20027;-84
2021/03/27 08:46:16;;;;;;;11.07;7.07;;;13.30;50.90;;;;;;4938082;29;20146;-84
2021/03/27 08:49:00;;;;;;;11.87;7.57;;;13.30;50.20;;;;;;4970954;28;20031;-84
2021/03/27 08:52:03;;;;;;;11.10;6.97;;;13.20;50.40;;;;;;4985531;28;20432;-84
2021/03/27 08:55:03;;;;;;;8.88;4.95;;;13.50;50.40;;;;;;4955529;28;20035;-84
2021/03/27 08:57:38;;;;;;;7.37;4.23;;;13.60;49.90;;;;;;4966626;28;20066;-84
2021/03/27 09:00:25;;;;;;;8.40;4.03;;;13.70;50.00;;;;;;4971898;28;20134;-84
2021/03/27 09:03:26;;;;;;;5.60;3.40;;;13.80;49.80;;;;;;4972715;28;20478;-84
2021/03/27 09:06:00;;;;;;;8.57;4.47;;;13.80;49.60;;;;;;4974152;28;20023;-84
2021/03/27 09:08:32;;;;;;;6.87;4.10;;;13.80;49.50;;;;;;4973906;28;20035;-84
2021/03/27 09:11:16;;;;;;;11.97;4.47;;;13.80;49.50;;;;;;4974822;28;20031;-84
2021/03/27 09:13:58;;;;;;;6.47;4.37;;;13.80;49.30;;;;;;4966469;28;20157;-84
2021/03/27 09:16:43;;;;;;;12.52;5.35;;;13.90;49.30;;;;;;4972528;28;20125;-85
2021/03/27 09:19:18;;;;;;;14.43;4.93;;;13.90;49.10;;;;;;4966441;28;20039;-84
2021/03/27 09:22:08;;;;;;;5.37;3.70;;;13.90;49.10;;;;;;4974841;28;20122;-84
2021/03/27 09:24:42;;;;;;;7.70;3.80;;;14.00;49.00;;;;;;4971167;28;20069;-84
2021/03/27 09:27:33;;;;;;;7.23;4.03;;;14.00;48.90;;;;;;4958469;28;20030;-84
2021/03/27 09:30:19;;;;;;;7.60;4.30;;;14.00;48.40;;;;;;4975565;28;20125;-84
2021/03/27 09:32:53;;;;;;;9.00;5.13;;;14.00;48.60;;;;;;4971766;28;20027;-84
2021/03/27 09:35:34;;;;;;;9.87;4.33;;;14.00;48.80;;;;;;4973036;28;20395;-84
2021/03/27 09:38:21;;;;;;;6.70;3.03;;;14.00;48.60;;;;;;4970713;28;20079;-84
2021/03/27 09:41:17;;;;;;;2.40;1.80;;;14.10;48.60;;;;;;4955342;29;20031;-84
2021/03/27 09:44:45;;;;;;;4.33;2.63;;;14.30;47.80;;;;;;4958458;28;20081;-84
2021/03/27 09:47:28;;;;;;;7.53;3.17;;;14.30;47.70;;;;;;4922287;29;20023;-84
2021/03/27 09:49:58;;;;;;;4.97;2.40;;;14.40;47.70;;;;;;4921357;29;20130;-84
2021/03/27 09:52:49;;;;;;;3.10;1.77;;;14.40;47.90;;;;;;4956190;28;20403;-84
2021/03/27 09:55:17;;;;;;;3.07;2.03;;;14.50;47.80;;;;;;4964061;28;20030;-84
2021/03/27 09:57:56;;;;;;;4.30;1.73;;;14.40;47.70;;;;;;4964582;28;20145;-84
2021/03/27 10:00:47;;;;;;;6.03;3.40;;;14.20;47.30;;;;;;4957854;28;20023;-84
2021/03/27 10:03:16;;;;;;;5.60;2.93;;;14.10;47.40;;;;;;4971406;28;20035;-84
2021/03/27 10:06:14;;;;;;;20.30;4.70;;;14.10;47.40;;;;;;4973763;28;20027;-84
2021/03/27 10:08:47;;;;;;;10.80;4.77;;;13.90;47.20;;;;;;4964865;28;20118;-84
2021/03/27 10:11:18;;;;;;;8.23;3.70;;;13.80;47.30;;;;;;4954447;28;20859;-84
2021/03/27 10:13:49;;;;;;;3.10;1.50;;;13.70;47.50;;;;;;4977665;28;20171;-84
2021/03/27 10:16:18;;;;;;;7.30;1.33;;;13.80;47.60;;;;;;4967809;28;20054;-84
2021/03/27 10:19:16;;;;;;;3.77;1.00;;;13.80;47.50;;;;;;4973188;28;20034;-84
2021/03/27 10:22:07;;;;;;;7.47;1.20;;;13.90;47.30;;;;;;4951410;28;20403;-84
2021/03/27 10:24:47;;;;;;;2.60;1.10;;;13.90;47.20;;;;;;4966387;28;20407;-84
2021/03/27 10:27:19;;;;;;;6.37;0.80;;;13.90;47.10;;;;;;4973058;28;20031;-84
2021/03/27 10:29:50;;;;;;;1.37;0.87;;;13.90;47.00;;;;;;4971098;28;20477;-84
2021/03/27 10:32:25;;;;;;;1.93;1.00;;;13.90;47.00;;;;;;4969354;28;20058;-84
2021/03/27 10:35:06;;;;;;;5.30;1.00;;;13.90;46.80;;;;;;4971529;28;20364;-84
2021/03/27 10:37:41;;;;;;;2.07;0.73;;;14.00;46.70;;;;;;4975700;28;20024;-84
2021/03/27 10:40:43;;;;;;;3.73;1.30;;;14.00;46.50;;;;;;4960475;28;20018;-84
2021/03/27 10:43:22;;;;;;;3.43;1.27;;;13.90;46.50;;;;;;4968594;28;20494;-84
2021/03/27 10:46:14;;;;;;;6.00;0.97;;;13.90;46.50;;;;;;4962669;28;20486;-84
2021/03/27 10:48:45;;;;;;;2.27;0.70;;;14.00;46.40;;;;;;4954106;28;20114;-85
2021/03/27 10:51:31;;;;;;;4.23;1.10;;;13.90;46.20;;;;;;4964310;28;20023;-84
2021/03/27 10:54:22;;;;;;;4.83;0.77;;;13.90;46.10;;;;;;4985423;28;20019;-84
2021/03/27 10:57:31;;;;;;;3.70;0.90;;;13.90;46.20;;;;;;4955027;28;20122;-85
2021/03/27 11:00:21;;;;;;;2.10;1.00;;;13.90;46.10;;;;;;4940131;28;20042;-84
2021/03/27 11:03:07;;;;;;;1.93;1.30;;;13.80;46.20;;;;;;4962013;28;20023;-85
2021/03/27 11:06:02;;;;;;;3.23;1.13;;;13.80;46.10;;;;;;4971649;28;20047;-84
2021/03/27 11:09:06;;;;;;;1.50;0.73;;;13.70;46.60;;;;;;4969027;28;20054;-84
2021/03/27 11:12:06;;;;;;;2.63;0.90;;;13.80;46.70;;;;;;4964003;28;20157;-84
2021/03/27 11:14:57;;;;;;;4.40;0.57;;;13.80;47.80;;;;;;4972842;28;20035;-85
2021/03/27 11:18:01;;;;;;;4.70;0.77;;;13.70;48.10;;;;;;4971649;28;20030;-84
2021/03/27 11:20:59;;;;;;;2.47;0.90;;;13.70;48.20;;;;;;4968569;28;20114;-84
2021/03/27 11:23:41;;;;;;;1.40;0.63;;;13.60;48.30;;;;;;4964248;28;20082;-84
2021/03/27 11:26:40;;;;;;;1.98;0.63;;;13.50;48.50;;;;;;4983586;28;20022;-84
2021/03/27 11:29:27;;;;;;;2.80;0.73;;;13.50;48.70;;;;;;4975049;28;20479;-84
2021/03/27 11:32:04;;;;;;;1.70;0.77;;;13.50;48.70;;;;;;4972727;28;20081;-84
2021/03/27 11:34:49;;;;;;;2.93;0.80;;;13.40;48.70;;;;;;4970131;28;20077;-84
2021/03/27 11:37:27;;;;;;;1.23;0.60;;;13.40;48.80;;;;;;4964680;28;20450;-84
2021/03/27 11:40:13;;;;;;;1.53;0.60;;;13.40;48.60;;;;;;4969013;28;20023;-84
2021/03/27 11:43:10;;;;;;;0.93;0.50;;;13.40;48.40;;;;;;4955527;28;20035;-84
2021/03/27 11:45:42;;;;;;;2.53;0.57;;;13.40;48.30;;;;;;4957033;28;20027;-84
2021/03/27 11:48:33;;;;;;;3.30;0.50;;;13.20;47.90;;;;;;4963141;28;20031;-84
2021/03/27 11:51:18;;;;;;;5.30;0.80;;;13.20;48.40;;;;;;4973505;28;20022;-84
2021/03/27 11:53:54;;;;;;;1.27;0.60;;;13.20;48.60;;;;;;4953544;28;20023;-84
2021/03/27 11:56:19;;;;;;;2.97;0.80;;;13.20;48.80;;;;;;4983457;28;20372;-84
2021/03/27 12:02:19;;;;;;;2.87;0.33;;;13.20;49.10;;;;;;4972214;28;20085;-84
2021/03/27 12:05:03;;;;;;;1.93;0.67;;;13.20;48.80;;;;;;4968409;28;20061;-85
2021/03/27 12:07:43;;;;;;;0.97;0.50;;;13.20;48.20;;;;;;4972310;28;20078;-84
2021/03/27 12:10:39;;;;;;;1.10;0.33;;;13.20;48.30;;;;;;4966578;28;20031;-84
2021/03/27 12:13:07;;;;;;;2.80;0.70;;;13.30;48.20;;;;;;4970256;28;20478;-84
2021/03/27 12:16:00;;;;;;;1.03;0.33;;;13.20;48.20;;;;;;4967997;28;20028;-84
2021/03/27 12:18:45;;;;;;;2.03;0.88;;;13.10;48.00;;;;;;4972968;28;20030;-84
2021/03/27 12:21:32;;;;;;;2.00;0.80;;;13.10;48.20;;;;;;4976031;28;20524;-84
2021/03/27 12:24:25;;;;;;;1.37;0.67;;;13.00;48.50;;;;;;4992106;28;20462;-84
2021/03/27 12:27:03;;;;;;;1.20;0.50;;;13.00;48.70;;;;;;4974483;28;20430;-84
2021/03/27 12:29:43;;;;;;;1.93;0.43;;;13.00;48.70;;;;;;4967404;28;20042;-84
2021/03/27 12:32:09;;;;;;;4.47;1.00;;;13.10;48.60;;;;;;4963613;28;20038;-84
2021/03/27 12:34:52;;;;;;;4.47;0.83;;;13.10;48.50;;;;;;4974945;28;20481;-84
2021/03/27 12:37:22;;;;;;;1.23;0.63;;;12.90;48.50;;;;;;4976724;28;20030;-84
2021/03/27 12:40:13;;;;;;;1.30;0.67;;;13.00;48.70;;;;;;4974045;28;20074;-84
2021/03/27 12:43:03;;;;;;;0.97;0.60;;;12.90;48.40;;;;;;4979518;28;20435;-84
2021/03/27 12:45:35;;;;;;;0.60;0.30;;;13.00;48.10;;;;;;4974898;28;20030;-84
2021/03/27 12:48:29;;;;;;;3.22;1.25;;;13.00;48.10;;;;;;4961353;28;20035;-84
2021/03/27 12:51:39;;;;;;;1.67;0.50;;;12.90;48.20;;;;;;4983192;28;20034;-84
2021/03/27 12:54:27;;;;;;;0.53;0.40;;;12.80;48.50;;;;;;4938470;28;20035;-85
2021/03/27 12:57:23;;;;;;;1.43;0.47;;;12.70;49.20;;;;;;4969089;28;20126;-85
2021/03/27 13:00:13;;;;;;;0.80;0.50;;;12.80;48.60;;;;;;4973050;28;20094;-85
2021/03/27 13:03:06;;;;;;;0.97;0.50;;;12.80;48.60;;;;;;4972029;28;20037;-84
2021/03/27 13:05:55;;;;;;;7.43;1.00;;;12.80;48.90;;;;;;4982581;28;20113;-85
2021/03/27 13:08:40;;;;;;;3.43;1.90;;;12.80;48.80;;;;;;4987232;28;20137;-83
2021/03/27 13:11:27;;;;;;;3.87;1.20;;;12.80;48.80;;;;;;4972292;28;20523;-84
2021/03/27 13:14:11;;;;;;;2.57;0.90;;;12.90;48.50;;;;;;4972218;28;20073;-86
2021/03/27 13:16:48;;;;;;;5.17;1.10;;;12.80;48.50;;;;;;4982552;28;20029;-84
2021/03/27 13:19:55;;;;;;;2.50;0.60;;;12.80;48.70;;;;;;4975049;28;20026;-85
2021/03/27 13:22:42;;;;;;;1.80;0.50;;;12.80;48.70;;;;;;4971818;28;20034;-84
2021/03/27 13:25:34;;;;;;;2.23;0.67;;;12.70;48.80;;;;;;4955822;29;20027;-84
2021/03/27 13:27:59;;;;;;;1.30;0.80;;;12.70;48.80;;;;;;4956650;28;20085;-84
2021/03/27 13:30:38;;;;;;;1.07;0.70;;;12.70;48.80;;;;;;4956573;28;20020;-84
2021/03/27 13:33:07;;;;;;;0.97;0.50;;;12.70;48.90;;;;;;4962956;28;20074;-84
2021/03/27 13:35:55;;;;;;;1.47;0.50;;;12.70;48.70;;;;;;4972142;28;20031;-84
2021/03/27 13:38:30;;;;;;;2.77;0.50;;;12.70;48.10;;;;;;4973767;28;20101;-84
2021/03/27 13:41:01;;;;;;;1.73;0.50;;;12.70;48.30;;;;;;4970764;28;20027;-84
2021/03/27 13:44:00;;;;;;;1.53;0.60;;;12.80;48.10;;;;;;4959038;28;20031;-84
2021/03/27 13:46:38;;;;;;;0.93;0.50;;;12.80;48.50;;;;;;4989010;28;20062;-84
2021/03/27 13:49:24;;;;;;;1.00;0.70;;;12.70;47.60;;;;;;4958859;28;20109;-84
2021/03/27 13:52:26;;;;;;;1.70;0.50;;;12.70;47.70;;;;;;4985592;28;20038;-84
2021/03/27 13:55:02;;;;;;;0.70;0.47;;;12.70;47.50;;;;;;4965281;28;20035;-84
2021/03/27 13:57:38;;;;;;;1.00;0.50;;;12.50;47.40;;;;;;4971252;28;20035;-84
2021/03/27 14:00:17;;;;;;;1.17;0.50;;;12.50;47.70;;;;;;4965803;28;20388;-84
2021/03/27 14:02:46;;;;;;;1.53;0.57;;;12.60;47.60;;;;;;4970435;28;20049;-84
2021/03/27 14:05:21;;;;;;;1.10;0.40;;;12.70;47.20;;;;;;4969475;28;20031;-84
2021/03/27 14:08:05;;;;;;;2.57;0.60;;;12.70;47.00;;;;;;4972536;28;20050;-84
2021/03/27 14:11:01;;;;;;;3.57;0.67;;;12.90;46.70;;;;;;4955596;28;20514;-83
2021/03/27 14:13:40;;;;;;;2.53;0.83;;;12.80;46.60;;;;;;4972892;28;20042;-83
2021/03/27 14:16:47;;;;;;;1.53;0.80;;;12.70;46.50;;;;;;4970896;28;20487;-84
2021/03/27 14:19:42;;;;;;;0.73;0.20;;;12.70;46.60;;;;;;4982085;28;20034;-83
2021/03/27 14:22:19;;;;;;;2.57;0.60;;;12.70;46.70;;;;;;4968391;28;20109;-84